createdAt,value
2022-10-04T00:01:30.661Z,84.09
2022-10-04T00:04:08.842Z,84.57
2022-10-04T00:06:39.231Z,84.96
2022-10-04T00:09:09.690Z,84.86
2022-10-04T00:11:39.168Z,85.10
2022-10-04T00:14:14.937Z,85.30
2022-10-04T00:16:44.882Z,85.12
2022-10-04T00:19:38.274Z,84.93
2022-10-04T00:22:28.030Z,85.17
2022-10-04T00:25:34.413Z,85.20
2022-10-04T00:28:29.531Z,85.22
2022-10-04T00:31:24.593Z,85.19
2022-10-04T00:33:58.260Z,84.99
2022-10-04T00:36:52.315Z,85.16
2022-10-04T00:39:39.685Z,85.19
2022-10-04T00:42:29.032Z,85.43
2022-10-04T00:45:02.309Z,85.56
2022-10-04T00:47:35.583Z,85.56
2022-10-04T00:50:12.386Z,85.88
2022-10-04T00:52:46.351Z,86.04
2022-10-04T00:55:24.998Z,86.04
2022-10-04T00:58:00.685Z,85.79
2022-10-04T01:00:33.162Z,85.69
2022-10-04T01:03:07.987Z,85.44
2022-10-04T01:05:38.635Z,85.65
2022-10-04T01:08:10.888Z,85.71
2022-10-04T01:10:44.269Z,85.63
2022-10-04T01:13:15.163Z,85.63
2022-10-04T01:15:46.254Z,86.00
2022-10-04T01:18:28.578Z,85.92
2022-10-04T01:21:00.030Z,85.67
2022-10-04T01:23:46.644Z,85.84
2022-10-04T01:26:38.845Z,85.72
2022-10-04T01:29:10.237Z,85.53
2022-10-04T01:31:40.157Z,85.63
2022-10-04T01:34:09.096Z,85.46
2022-10-04T01:36:38.007Z,85.53
2022-10-04T01:39:07.960Z,85.32
2022-10-04T01:41:44.558Z,85.26
2022-10-04T01:44:21.542Z,85.23
2022-10-04T01:46:51.524Z,85.38
2022-10-04T01:49:21.614Z,85.34
2022-10-04T01:51:57.490Z,85.38
2022-10-04T01:54:34.918Z,85.54
2022-10-04T01:57:08.846Z,85.71
2022-10-04T01:59:45.522Z,85.50
2022-10-04T02:02:22.755Z,85.29
2022-10-04T02:04:54.921Z,85.33
2022-10-04T02:07:26.117Z,85.46
2022-10-04T02:09:59.831Z,85.41
2022-10-04T02:12:31.362Z,85.31
2022-10-04T02:15:02.294Z,85.11
2022-10-04T02:17:33.042Z,84.89
2022-10-04T02:20:02.510Z,84.65
2022-10-04T02:22:31.408Z,84.60
2022-10-04T02:25:01.217Z,84.45
2022-10-04T02:27:33.334Z,84.42
2022-10-04T02:30:02.848Z,84.70
2022-10-04T02:32:50.357Z,84.54
2022-10-04T02:35:20.712Z,84.86
2022-10-04T02:37:52.912Z,84.73
2022-10-04T02:40:28.359Z,84.59
2022-10-04T02:43:01.201Z,84.62
2022-10-04T02:45:44.037Z,84.42
2022-10-04T02:48:29.281Z,84.56
2022-10-04T02:51:02.196Z,84.63
2022-10-04T02:53:38.216Z,84.48
2022-10-04T02:56:12.061Z,84.75
2022-10-04T02:58:42.087Z,85.00
2022-10-04T03:01:18.940Z,85.06
2022-10-04T03:03:48.706Z,85.14
2022-10-04T03:06:20.105Z,84.98
2022-10-04T03:08:51.222Z,84.97
2022-10-04T03:11:23.565Z,85.15
2022-10-04T03:13:54.368Z,85.31
2022-10-04T03:16:23.680Z,85.18
2022-10-04T03:18:54.330Z,85.10
2022-10-04T03:21:23.820Z,85.13
2022-10-04T03:23:53.571Z,84.90
2022-10-04T03:26:30.383Z,85.02
2022-10-04T03:28:59.812Z,85.01
2022-10-04T03:31:29.660Z,84.92
2022-10-04T03:33:58.901Z,85.02
2022-10-04T03:36:28.438Z,84.88
2022-10-04T03:38:58.770Z,84.88
2022-10-04T03:41:28.435Z,84.84
2022-10-04T03:44:00.386Z,84.67
2022-10-04T03:46:32.264Z,84.50
2022-10-04T03:49:01.049Z,84.44
2022-10-04T03:51:29.179Z,84.72
2022-10-04T03:53:59.735Z,84.62
2022-10-04T03:56:32.070Z,84.48
2022-10-04T03:59:03.368Z,84.59
2022-10-04T04:01:40.335Z,84.87
2022-10-04T04:04:19.705Z,84.89
2022-10-04T04:06:56.002Z,84.66
2022-10-04T04:09:27.335Z,84.89
2022-10-04T04:11:58.913Z,85.04
2022-10-04T04:14:29.311Z,84.88
2022-10-04T04:17:31.701Z,85.06
2022-10-04T04:20:07.153Z,85.13
2022-10-04T04:22:37.458Z,85.48
2022-10-04T04:25:09.982Z,85.54
2022-10-04T04:27:41.540Z,85.40
2022-10-04T04:30:16.395Z,85.54
2022-10-04T04:32:50.013Z,85.98
2022-10-04T04:35:26.652Z,85.72
2022-10-04T04:38:06.513Z,86.21
2022-10-04T04:40:34.610Z,85.87
2022-10-04T04:43:04.453Z,85.53
2022-10-04T04:45:34.468Z,85.42
2022-10-04T04:48:04.716Z,85.33
2022-10-04T04:50:36.222Z,84.92
2022-10-04T04:53:08.145Z,84.93
2022-10-04T04:56:02.189Z,84.69
2022-10-04T04:58:35.373Z,85.30
2022-10-04T05:01:07.508Z,84.92
2022-10-04T05:03:35.862Z,85.69
2022-10-04T05:06:04.798Z,85.00
2022-10-04T05:08:40.272Z,85.20
2022-10-04T05:11:16.505Z,85.25
2022-10-04T05:13:51.895Z,85.97
2022-10-04T05:16:25.420Z,85.33
2022-10-04T05:18:58.471Z,85.11
2022-10-04T05:21:29.687Z,84.98
2022-10-04T05:23:59.324Z,84.88
2022-10-04T05:26:30.158Z,84.66
2022-10-04T05:29:07.157Z,84.70
2022-10-04T05:31:46.535Z,84.58
2022-10-04T05:34:19.730Z,84.70
2022-10-04T05:37:07.882Z,84.75
2022-10-04T05:39:41.672Z,84.73
2022-10-04T05:42:16.572Z,84.67
2022-10-04T05:44:52.866Z,84.77
2022-10-04T05:47:24.124Z,84.73
2022-10-04T05:49:55.497Z,84.50
2022-10-04T05:52:30.445Z,84.59
2022-10-04T05:55:27.113Z,84.45
2022-10-04T05:58:18.261Z,84.46
2022-10-04T06:01:03.464Z,84.13
2022-10-04T06:03:56.479Z,84.99
2022-10-04T06:06:29.849Z,84.91
2022-10-04T06:09:10.350Z,84.65
2022-10-04T06:11:52.121Z,84.61
2022-10-04T06:14:48.221Z,84.29
2022-10-04T06:17:33.952Z,84.29
2022-10-04T06:20:32.072Z,84.22
2022-10-04T06:23:01.914Z,84.17
2022-10-04T06:25:35.790Z,83.90
2022-10-04T06:28:15.888Z,83.86
2022-10-04T06:31:13.668Z,83.82
2022-10-04T06:34:00.753Z,83.60
2022-10-04T06:36:52.499Z,83.45
2022-10-04T06:39:37.852Z,83.06
2022-10-04T06:42:34.577Z,82.26
2022-10-04T06:45:24.894Z,82.01
2022-10-04T06:48:35.287Z,81.83
2022-10-04T06:51:13.596Z,81.94
2022-10-04T06:53:56.817Z,81.44
2022-10-04T06:56:48.255Z,80.71
2022-10-04T06:59:49.037Z,80.08
2022-10-04T07:02:21.412Z,80.45
2022-10-04T07:05:08.055Z,79.84
2022-10-04T07:07:41.976Z,79.02
2022-10-04T07:10:30.987Z,78.51
2022-10-04T07:13:16.930Z,77.85
2022-10-04T07:15:52.321Z,77.56
2022-10-04T07:18:25.045Z,77.06
2022-10-04T07:21:02.231Z,76.62
2022-10-04T07:23:38.114Z,76.40
2022-10-04T07:26:17.293Z,76.27
2022-10-04T07:29:04.365Z,76.43
2022-10-04T07:31:36.188Z,75.98
2022-10-04T07:34:11.944Z,74.96
2022-10-04T07:36:46.030Z,74.80
2022-10-04T07:39:19.061Z,74.13
2022-10-04T07:41:53.173Z,73.65
2022-10-04T07:44:32.739Z,73.18
2022-10-04T07:47:05.883Z,73.69
2022-10-04T07:49:39.485Z,73.07
2022-10-04T07:52:27.954Z,73.53
2022-10-04T07:55:07.271Z,73.67
2022-10-04T07:57:48.992Z,73.64
2022-10-04T08:00:20.003Z,73.69
2022-10-04T08:03:05.653Z,73.81
2022-10-04T08:05:38.497Z,73.64
2022-10-04T08:08:40.517Z,73.58
2022-10-04T08:11:28.489Z,72.97
2022-10-04T08:14:10.284Z,72.89
2022-10-04T08:16:45.073Z,72.53
2022-10-04T08:19:33.317Z,71.46
2022-10-04T08:22:05.917Z,70.16
2022-10-04T08:24:38.069Z,67.15
2022-10-04T08:27:27.612Z,56.45
2022-10-04T08:30:04.739Z,45.79
2022-10-04T08:33:07.119Z,43.57
2022-10-04T08:35:57.109Z,49.08
2022-10-04T08:38:45.330Z,52.89
2022-10-04T08:41:51.884Z,54.07
2022-10-04T08:47:50.649Z,43.70
2022-10-04T08:50:49.446Z,47.00
2022-10-04T08:53:47.321Z,49.93
2022-10-04T08:56:24.783Z,56.06
2022-10-04T08:59:25.133Z,57.70
2022-10-04T09:02:26.635Z,59.48
2022-10-04T09:05:23.235Z,60.51
2022-10-04T09:08:33.018Z,60.98
2022-10-04T09:11:19.602Z,60.76
2022-10-04T09:14:11.239Z,60.45
2022-10-04T09:16:46.323Z,60.42
2022-10-04T09:19:23.237Z,60.24
2022-10-04T09:22:19.143Z,60.30
2022-10-04T09:25:12.749Z,59.76
2022-10-04T09:28:21.046Z,60.12
2022-10-04T09:31:12.170Z,59.85
2022-10-04T09:34:01.301Z,59.63
2022-10-04T09:36:55.825Z,60.02
2022-10-04T09:39:44.028Z,59.73
2022-10-04T09:42:43.652Z,59.56
2022-10-04T09:45:44.758Z,59.31
2022-10-04T09:48:26.404Z,58.97
2022-10-04T09:51:27.750Z,57.86
2022-10-04T09:54:31.322Z,56.33
2022-10-04T09:57:19.638Z,55.43
2022-10-04T10:00:10.586Z,53.70
2022-10-04T10:03:30.215Z,52.85
2022-10-04T10:06:31.537Z,53.66
2022-10-04T10:09:12.555Z,54.58
2022-10-04T10:12:10.435Z,54.43
2022-10-04T10:15:05.958Z,55.61
2022-10-04T10:17:41.773Z,55.72
2022-10-04T10:20:30.248Z,56.09
2022-10-04T10:23:19.266Z,54.08
2022-10-04T10:26:03.112Z,50.34
2022-10-04T10:29:16.227Z,50.98
2022-10-04T10:32:00.141Z,47.86
2022-10-04T10:34:46.008Z,40.09
2022-10-04T10:37:18.859Z,34.49
2022-10-04T10:40:23.951Z,32.85
2022-10-04T10:43:05.874Z,31.58
2022-10-04T10:45:45.780Z,34.39
2022-10-04T10:48:19.270Z,35.90
2022-10-04T10:51:11.623Z,38.43
2022-10-04T10:54:11.345Z,40.09
2022-10-04T10:57:00.798Z,41.32
2022-10-04T11:00:10.009Z,42.09
2022-10-04T11:03:11.873Z,39.19
2022-10-04T11:06:14.943Z,42.11
2022-10-04T11:09:25.081Z,44.02
2022-10-04T11:12:35.131Z,43.20
2022-10-04T11:15:25.877Z,42.63
2022-10-04T11:18:15.158Z,40.83
2022-10-04T11:21:08.130Z,39.67
2022-10-04T11:24:14.196Z,40.11
2022-10-04T11:27:14.857Z,40.18
2022-10-04T11:30:03.998Z,40.68
2022-10-04T11:33:08.401Z,40.27
2022-10-04T11:35:50.157Z,40.04
2022-10-04T11:38:35.641Z,37.48
2022-10-04T11:41:16.569Z,35.96
2022-10-04T11:44:05.899Z,35.81
2022-10-04T11:46:46.250Z,35.59
2022-10-04T11:49:29.844Z,35.09
2022-10-04T11:52:26.905Z,31.68
2022-10-04T11:55:34.178Z,32.46
2022-10-04T11:58:12.062Z,35.76
2022-10-04T12:01:04.989Z,37.43
2022-10-04T12:03:54.729Z,39.94
2022-10-04T12:06:39.926Z,42.04
2022-10-04T12:09:16.266Z,41.88
2022-10-04T12:12:37.962Z,42.69
2022-10-04T12:15:33.040Z,44.23
2022-10-04T12:18:46.082Z,44.34
2022-10-04T12:21:44.128Z,45.52
2022-10-04T12:24:42.694Z,46.54
2022-10-04T12:27:39.028Z,46.44
2022-10-04T12:30:23.019Z,46.34
2022-10-04T12:33:12.206Z,46.33
2022-10-04T12:36:03.138Z,46.05
2022-10-04T12:38:50.727Z,45.40
2022-10-04T12:41:32.037Z,45.84
2022-10-04T12:44:16.674Z,46.57
2022-10-04T12:47:03.303Z,46.71
2022-10-04T12:49:45.579Z,47.42
2022-10-04T12:52:20.940Z,46.48
2022-10-04T12:54:57.642Z,46.90
2022-10-04T12:57:41.502Z,46.62
2022-10-04T13:00:20.523Z,45.52
2022-10-04T13:06:06.257Z,47.39
2022-10-04T13:08:49.803Z,47.47
2022-10-04T13:11:42.059Z,47.14
2022-10-04T13:14:54.040Z,47.52
2022-10-04T13:17:39.367Z,49.03
2022-10-04T13:20:19.099Z,49.06
2022-10-04T13:22:57.253Z,49.33
2022-10-04T13:25:40.801Z,49.65
2022-10-04T13:28:23.006Z,48.54
2022-10-04T13:31:00.675Z,47.26
2022-10-04T13:33:41.581Z,47.30
2022-10-04T13:36:14.229Z,47.01
2022-10-04T13:39:03.540Z,47.59
2022-10-04T13:41:48.248Z,47.79
2022-10-04T13:44:51.943Z,48.58
2022-10-04T13:47:36.200Z,48.02
2022-10-04T13:50:27.444Z,48.49
2022-10-04T13:53:20.603Z,48.93
2022-10-04T13:56:18.068Z,48.71
2022-10-04T13:58:49.684Z,49.20
2022-10-04T14:02:12.575Z,48.98
2022-10-04T14:05:15.866Z,47.47
2022-10-04T14:08:11.359Z,44.50
2022-10-04T14:11:10.685Z,42.88
2022-10-04T14:14:01.738Z,43.16
2022-10-04T14:17:03.412Z,45.47
2022-10-04T14:20:12.763Z,47.45
2022-10-04T14:23:04.058Z,47.88
2022-10-04T14:25:43.077Z,48.36
2022-10-04T14:28:53.749Z,46.33
2022-10-04T14:31:46.736Z,46.92
2022-10-04T14:34:47.866Z,46.70
2022-10-04T14:37:45.693Z,46.27
2022-10-04T14:40:33.960Z,47.98
2022-10-04T14:43:24.135Z,48.95
2022-10-04T14:46:09.154Z,48.95
2022-10-04T14:48:51.049Z,49.29
2022-10-04T14:51:33.465Z,49.90
2022-10-04T14:54:07.797Z,50.80
2022-10-04T14:57:00.750Z,50.32
2022-10-04T14:59:47.607Z,50.53
2022-10-04T15:02:51.311Z,50.62
2022-10-04T15:05:44.303Z,50.56
2022-10-04T15:08:32.289Z,50.52
2022-10-04T15:11:04.776Z,50.54
2022-10-04T15:13:38.329Z,50.03
2022-10-04T15:16:20.870Z,49.22
2022-10-04T15:18:55.824Z,49.07
2022-10-04T15:21:54.278Z,48.92
2022-10-04T15:24:28.969Z,49.27
2022-10-04T15:27:28.895Z,48.68
2022-10-04T15:30:04.903Z,48.77
2022-10-04T15:32:41.509Z,48.97
2022-10-04T15:35:24.850Z,48.62
2022-10-04T15:37:59.333Z,48.77
2022-10-04T15:43:42.470Z,48.65
2022-10-04T15:46:42.993Z,48.66
2022-10-04T15:49:38.058Z,49.18
2022-10-04T15:52:16.034Z,49.50
2022-10-04T15:55:04.704Z,49.79
2022-10-04T15:57:42.985Z,50.05
2022-10-04T16:00:22.778Z,49.88
2022-10-04T16:03:11.071Z,50.30
2022-10-04T16:05:46.433Z,51.54
2022-10-04T16:08:33.291Z,51.99
2022-10-04T16:11:17.941Z,51.50
2022-10-04T16:14:16.422Z,52.89
2022-10-04T16:17:09.723Z,53.47
2022-10-04T16:19:53.376Z,54.58
2022-10-04T16:22:29.207Z,54.32
2022-10-04T16:24:59.833Z,54.72
2022-10-04T16:28:05.632Z,55.41
2022-10-04T16:30:41.204Z,55.30
2022-10-04T16:33:29.072Z,55.73
2022-10-04T16:36:10.066Z,56.08
2022-10-04T16:39:07.522Z,56.45
2022-10-04T16:41:42.191Z,57.52
2022-10-04T16:44:33.203Z,57.73
2022-10-04T16:47:05.578Z,57.64
2022-10-04T16:49:42.028Z,57.92
2022-10-04T16:52:22.636Z,58.05
2022-10-04T16:55:22.405Z,58.85
2022-10-04T16:58:23.037Z,59.09
2022-10-04T17:01:33.985Z,59.72
2022-10-04T17:04:21.227Z,60.21
2022-10-04T17:06:54.344Z,60.50
2022-10-04T17:09:29.769Z,60.63
2022-10-04T17:12:08.449Z,61.02
2022-10-04T17:14:59.817Z,61.24
2022-10-04T17:17:45.052Z,61.54
2022-10-04T17:20:24.127Z,61.62
2022-10-04T17:23:09.389Z,62.14
2022-10-04T17:25:43.034Z,62.28
2022-10-04T17:28:22.757Z,63.01
2022-10-04T17:30:59.911Z,62.92
2022-10-04T17:33:37.885Z,63.23
2022-10-04T17:36:23.159Z,63.87
2022-10-04T17:38:57.649Z,64.55
2022-10-04T17:41:43.399Z,64.39
2022-10-04T17:44:27.930Z,64.74
2022-10-04T17:47:03.363Z,64.62
2022-10-04T17:50:01.594Z,65.00
2022-10-04T17:52:53.074Z,65.26
2022-10-04T17:55:28.746Z,65.51
2022-10-04T17:58:03.091Z,65.84
2022-10-04T18:00:54.319Z,66.19
2022-10-04T18:03:26.383Z,66.46
2022-10-04T18:05:59.185Z,66.72
2022-10-04T18:08:41.302Z,67.18
2022-10-04T18:11:19.887Z,67.53
2022-10-04T18:13:51.684Z,67.99
2022-10-04T18:16:27.495Z,68.05
2022-10-04T18:18:55.642Z,67.95
2022-10-04T18:21:28.415Z,68.14
2022-10-04T18:23:58.903Z,68.43
2022-10-04T18:26:30.425Z,68.37
2022-10-04T18:29:01.579Z,68.14
2022-10-04T18:31:37.829Z,67.88
2022-10-04T18:34:19.538Z,68.05
2022-10-04T18:36:54.894Z,67.58
2022-10-04T18:39:24.686Z,67.39
2022-10-04T18:42:01.167Z,66.67
2022-10-04T18:44:44.365Z,67.11
2022-10-04T18:47:21.183Z,66.85
2022-10-04T18:49:53.648Z,67.13
2022-10-04T18:52:39.120Z,66.85
2022-10-04T18:55:20.520Z,66.87
2022-10-04T18:58:15.668Z,67.21
2022-10-04T19:01:08.652Z,67.40
2022-10-04T19:03:47.462Z,67.57
2022-10-04T19:06:26.649Z,67.52
2022-10-04T19:09:05.332Z,67.66
2022-10-04T19:11:40.025Z,67.70
2022-10-04T19:14:21.007Z,67.99
2022-10-04T19:17:00.037Z,68.10
2022-10-04T19:19:44.015Z,68.34
2022-10-04T19:22:24.118Z,68.13
2022-10-04T19:25:07.949Z,68.23
2022-10-04T19:27:39.645Z,68.18
2022-10-04T19:30:17.483Z,68.79
2022-10-04T19:33:14.770Z,68.52
2022-10-04T19:36:09.164Z,68.59
2022-10-04T19:38:52.269Z,68.43
2022-10-04T19:41:33.256Z,68.64
2022-10-04T19:44:06.816Z,68.19
2022-10-04T19:46:43.566Z,68.50
2022-10-04T19:49:21.553Z,68.55
2022-10-04T19:51:54.527Z,68.71
2022-10-04T19:54:31.128Z,68.54
2022-10-04T19:57:04.821Z,68.80
2022-10-04T19:59:40.412Z,68.75
2022-10-04T20:02:10.098Z,68.71
2022-10-04T20:04:39.291Z,68.88
2022-10-04T20:07:13.088Z,68.76
2022-10-04T20:09:56.155Z,69.51
2022-10-04T20:12:35.829Z,69.53
2022-10-04T20:15:26.636Z,69.86
2022-10-04T20:17:56.316Z,69.76
2022-10-04T20:20:57.481Z,69.63
2022-10-04T20:23:50.326Z,69.80
2022-10-04T20:26:53.732Z,69.79
2022-10-04T20:30:06.935Z,69.94
2022-10-04T20:32:56.276Z,70.12
2022-10-04T20:36:04.579Z,70.95
2022-10-04T20:38:52.575Z,71.05
2022-10-04T20:42:03.829Z,71.76
2022-10-04T20:44:55.576Z,72.07
2022-10-04T20:47:42.802Z,72.59
2022-10-04T20:50:21.777Z,72.71
2022-10-04T20:52:52.741Z,72.92
2022-10-04T20:55:27.129Z,73.15
2022-10-04T20:58:01.647Z,72.98
2022-10-04T21:00:35.141Z,73.14
2022-10-04T21:03:11.319Z,73.20
2022-10-04T21:05:41.285Z,73.70
2022-10-04T21:08:30.551Z,73.84
2022-10-04T21:11:10.176Z,74.14
2022-10-04T21:13:49.779Z,73.96
2022-10-04T21:16:51.679Z,74.41
2022-10-04T21:19:51.370Z,74.73
2022-10-04T21:22:40.248Z,75.14
2022-10-04T21:25:43.914Z,75.32
2022-10-04T21:28:25.042Z,75.81
2022-10-04T21:30:53.274Z,75.46
2022-10-04T21:33:21.534Z,74.79
2022-10-04T21:35:51.392Z,74.53
2022-10-04T21:38:21.081Z,74.46
2022-10-04T21:40:49.512Z,74.09
2022-10-04T21:43:20.792Z,73.92
2022-10-04T21:45:49.122Z,73.78
2022-10-04T21:48:17.672Z,73.63
2022-10-04T21:50:45.850Z,73.89
2022-10-04T21:53:13.776Z,73.98
2022-10-04T21:55:48.413Z,73.98
2022-10-04T21:58:16.875Z,74.26
2022-10-04T22:00:44.795Z,74.32
2022-10-04T22:03:12.751Z,73.79
2022-10-04T22:05:40.755Z,73.44
2022-10-04T22:08:08.719Z,73.41
2022-10-04T22:10:36.690Z,73.57
2022-10-04T22:13:05.978Z,73.54
2022-10-04T22:15:33.960Z,73.54
2022-10-04T22:18:01.875Z,73.33
2022-10-04T22:20:30.080Z,73.39
2022-10-04T22:22:59.789Z,73.38
2022-10-04T22:25:28.774Z,72.96
2022-10-04T22:27:56.751Z,72.89
2022-10-04T22:30:29.828Z,72.95
2022-10-04T22:32:59.856Z,72.60
2022-10-04T22:35:31.506Z,72.85
2022-10-04T22:38:02.182Z,72.54
2022-10-04T22:40:30.489Z,72.71
2022-10-04T22:43:00.814Z,72.65
2022-10-04T22:45:33.354Z,72.84
2022-10-04T22:48:11.351Z,73.05
2022-10-04T22:50:39.782Z,73.58
2022-10-04T22:53:14.623Z,73.60
2022-10-04T22:55:42.875Z,74.20
2022-10-04T22:58:14.064Z,74.63
2022-10-04T23:00:44.211Z,74.64
2022-10-04T23:03:25.365Z,74.94
2022-10-04T23:05:53.290Z,75.16
2022-10-04T23:08:21.349Z,75.30
2022-10-04T23:10:49.478Z,75.12
2022-10-04T23:13:20.224Z,74.85
2022-10-04T23:16:00.254Z,74.40
2022-10-04T23:18:30.400Z,73.95
2022-10-04T23:21:02.443Z,73.72
2022-10-04T23:23:31.965Z,73.25
2022-10-04T23:25:59.905Z,72.67
2022-10-04T23:28:28.097Z,72.48
2022-10-04T23:31:03.302Z,72.28
2022-10-04T23:33:31.545Z,71.31
2022-10-04T23:35:59.598Z,71.35
2022-10-04T23:38:27.649Z,71.05
2022-10-04T23:40:55.636Z,71.07
2022-10-04T23:43:26.818Z,71.23
2022-10-04T23:45:56.636Z,70.94
2022-10-04T23:48:28.044Z,70.59
2022-10-04T23:50:59.698Z,70.62
2022-10-04T23:53:29.272Z,70.40
2022-10-04T23:55:59.891Z,70.71
2022-10-04T23:58:35.496Z,70.68
